createdAt,value
2023-04-13T00:00:54.750Z,99312.02
2023-04-13T00:03:23.140Z,99313.81
2023-04-13T00:05:53.659Z,99318.17
2023-04-13T00:08:23.052Z,99323.17
2023-04-13T00:10:51.533Z,99325.41
2023-04-13T00:13:19.478Z,99323.80
2023-04-13T00:15:47.754Z,99324.90
2023-04-13T00:18:15.646Z,99331.45
2023-04-13T00:20:43.885Z,99338.31
2023-04-13T00:23:12.475Z,99340.31
2023-04-13T00:25:40.501Z,99335.96
2023-04-13T00:28:09.132Z,99335.51
2023-04-13T00:30:37.160Z,99336.09
2023-04-13T00:33:06.483Z,99339.28
2023-04-13T00:35:34.915Z,99334.63
2023-04-13T00:38:03.208Z,99329.14
2023-04-13T00:40:31.796Z,99325.84
2023-04-13T00:43:00.830Z,99324.73
2023-04-13T00:45:29.820Z,99320.77
2023-04-13T00:47:58.394Z,99316.70
2023-04-13T00:50:26.439Z,99318.73
2023-04-13T00:52:54.665Z,99319.95
2023-04-13T00:55:22.863Z,99320.38
2023-04-13T00:57:52.910Z,99321.70
2023-04-13T01:00:22.048Z,99324.67
2023-04-13T01:02:52.846Z,99323.85
2023-04-13T01:05:23.231Z,99322.82
2023-04-13T01:08:04.113Z,99325.25
2023-04-13T01:11:13.504Z,99319.35
2023-04-13T01:13:56.062Z,99315.29
2023-04-13T01:16:31.121Z,99315.80
2023-04-13T01:19:01.331Z,99309.35
2023-04-13T01:21:32.056Z,99307.59
2023-04-13T01:24:17.946Z,99305.70
2023-04-13T01:27:11.875Z,99304.15
2023-04-13T01:29:43.316Z,99312.50
2023-04-13T01:32:11.826Z,99317.48
2023-04-13T01:34:40.822Z,99323.38
2023-04-13T01:37:11.045Z,99320.30
2023-04-13T01:39:39.948Z,99321.02
2023-04-13T01:42:18.585Z,99325.52
2023-04-13T01:44:47.148Z,99329.42
2023-04-13T01:47:19.271Z,99337.46
2023-04-13T01:50:04.099Z,99340.84
2023-04-13T01:52:44.412Z,99341.92
2023-04-13T01:55:16.214Z,99343.30
2023-04-13T01:57:48.613Z,99348.43
2023-04-13T02:00:18.806Z,99347.81
2023-04-13T02:02:49.452Z,99349.73
2023-04-13T02:05:17.741Z,99350.84
2023-04-13T02:07:47.415Z,99354.27
2023-04-13T02:10:16.313Z,99350.99
2023-04-13T02:12:45.783Z,99350.47
2023-04-13T02:15:13.750Z,99354.27
2023-04-13T02:17:42.484Z,99355.86
2023-04-13T02:20:12.249Z,99351.48
2023-04-13T02:22:41.703Z,99349.09
2023-04-13T02:25:11.572Z,99351.31
2023-04-13T02:27:40.021Z,99350.94
2023-04-13T02:30:12.391Z,99347.21
2023-04-13T02:32:41.629Z,99346.39
2023-04-13T02:35:11.510Z,99347.87
2023-04-13T02:37:40.320Z,99346.89
2023-04-13T02:40:10.466Z,99348.17
2023-04-13T02:42:39.298Z,99346.97
2023-04-13T02:45:12.394Z,99345.05
2023-04-13T02:47:41.301Z,99343.86
2023-04-13T02:50:09.360Z,99344.45
2023-04-13T02:52:44.000Z,99343.25
2023-04-13T02:55:13.050Z,99346.72
2023-04-13T02:57:47.862Z,99348.02
2023-04-13T03:00:17.057Z,99349.20
2023-04-13T03:02:50.218Z,99351.71
2023-04-13T03:05:20.091Z,99349.31
2023-04-13T03:07:49.484Z,99343.49
2023-04-13T03:10:19.004Z,99340.87
2023-04-13T03:12:47.863Z,99343.88
2023-04-13T03:15:18.385Z,99342.83
2023-04-13T03:17:46.359Z,99338.23
2023-04-13T03:20:20.807Z,99342.47
2023-04-13T03:22:55.651Z,99342.59
2023-04-13T03:25:23.892Z,99346.96
2023-04-13T03:27:51.956Z,99346.04
2023-04-13T03:30:21.696Z,99343.45
2023-04-13T03:32:56.831Z,99347.23
2023-04-13T03:35:27.425Z,99342.89
2023-04-13T03:37:56.220Z,99342.65
2023-04-13T03:40:38.752Z,99344.12
2023-04-13T03:43:07.129Z,99347.30
2023-04-13T03:45:38.018Z,99347.08
2023-04-13T03:48:11.030Z,99346.82
2023-04-13T03:50:39.138Z,99347.52
2023-04-13T03:53:08.135Z,99347.28
2023-04-13T03:55:37.173Z,99350.35
2023-04-13T03:58:07.868Z,99354.54
2023-04-13T04:00:35.871Z,99355.16
2023-04-13T04:03:13.749Z,99357.46
2023-04-13T04:05:54.977Z,99359.73
2023-04-13T04:08:23.155Z,99361.48
2023-04-13T04:10:53.099Z,99364.27
2023-04-13T04:13:22.752Z,99362.52
2023-04-13T04:15:53.111Z,99364.13
2023-04-13T04:18:21.436Z,99364.90
2023-04-13T04:20:50.315Z,99368.00
2023-04-13T04:23:19.917Z,99368.91
2023-04-13T04:26:03.211Z,99364.80
2023-04-13T04:28:39.146Z,99364.95
2023-04-13T04:31:12.942Z,99362.64
2023-04-13T04:33:44.602Z,99362.24
2023-04-13T04:36:14.413Z,99363.55
2023-04-13T04:38:51.787Z,99364.20
2023-04-13T04:41:21.176Z,99366.56
2023-04-13T04:43:51.557Z,99365.07
2023-04-13T04:46:19.944Z,99368.41
2023-04-13T04:48:52.985Z,99368.39
2023-04-13T04:51:28.136Z,99363.59
2023-04-13T04:54:04.008Z,99363.10
2023-04-13T04:56:32.307Z,99364.39
2023-04-13T04:59:01.150Z,99365.66
2023-04-13T05:01:44.017Z,99366.44
2023-04-13T05:04:14.160Z,99367.66
2023-04-13T05:06:44.765Z,99371.70
2023-04-13T05:09:17.694Z,99374.05
2023-04-13T05:11:48.699Z,99375.94
2023-04-13T05:14:17.283Z,99379.00
2023-04-13T05:16:45.475Z,99380.64
2023-04-13T05:19:32.112Z,99376.52
2023-04-13T05:22:03.252Z,99369.73
2023-04-13T05:24:37.487Z,99367.18
2023-04-13T05:27:12.001Z,99369.17
2023-04-13T05:29:40.755Z,99372.08
2023-04-13T05:32:10.472Z,99374.15
2023-04-13T05:34:38.800Z,99373.73
2023-04-13T05:37:14.732Z,99377.66
2023-04-13T05:39:43.677Z,99375.55
2023-04-13T05:42:12.374Z,99377.60
2023-04-13T05:44:45.765Z,99371.42
2023-04-13T05:47:19.001Z,99366.34
2023-04-13T05:49:49.431Z,99369.49
2023-04-13T05:52:21.366Z,99370.96
2023-04-13T05:54:52.807Z,99372.38
2023-04-13T05:57:22.391Z,99367.33
2023-04-13T05:59:53.334Z,99365.99
2023-04-13T06:02:26.788Z,99364.48
2023-04-13T06:04:56.490Z,99355.88
2023-04-13T06:07:26.206Z,99347.66
2023-04-13T06:09:54.212Z,99344.45
2023-04-13T06:12:24.111Z,99344.76
2023-04-13T06:14:54.395Z,99347.51
2023-04-13T06:17:22.430Z,99344.84
2023-04-13T06:19:50.499Z,99339.66
2023-04-13T06:22:18.436Z,99339.48
2023-04-13T06:24:46.505Z,99341.62
2023-04-13T06:27:16.497Z,99340.65
2023-04-13T06:29:46.154Z,99338.27
2023-04-13T06:32:14.293Z,99336.94
2023-04-13T06:34:44.629Z,99336.61
2023-04-13T06:37:13.271Z,99337.95
2023-04-13T06:39:51.807Z,99342.55
2023-04-13T06:42:20.632Z,99346.42
2023-04-13T06:45:22.594Z,99345.86
2023-04-13T06:47:52.885Z,99345.55
2023-04-13T06:50:21.016Z,99346.46
2023-04-13T06:52:49.851Z,99344.66
2023-04-13T06:55:18.133Z,99343.27
2023-04-13T06:57:46.435Z,99342.08
2023-04-13T07:00:28.994Z,99340.42
2023-04-13T07:02:58.933Z,99337.79
2023-04-13T07:05:27.201Z,99335.50
2023-04-13T07:07:58.402Z,99345.20
2023-04-13T07:10:27.335Z,99341.88
2023-04-13T07:12:56.008Z,99344.27
2023-04-13T07:15:24.729Z,99349.27
2023-04-13T07:17:52.853Z,99349.47
2023-04-13T07:20:21.031Z,99346.54
2023-04-13T07:22:49.026Z,99344.61
2023-04-13T07:25:17.255Z,99345.03
2023-04-13T07:27:45.646Z,99342.02
2023-04-13T07:30:14.289Z,99338.21
2023-04-13T07:32:44.710Z,99336.52
2023-04-13T07:35:13.994Z,99335.44
2023-04-13T07:37:42.742Z,99336.38
2023-04-13T07:40:11.938Z,99333.18
2023-04-13T07:42:41.620Z,99329.08
2023-04-13T07:45:15.595Z,99329.64
2023-04-13T07:47:43.785Z,99332.27
2023-04-13T07:50:13.419Z,99335.15
2023-04-13T07:52:42.687Z,99333.67
2023-04-13T07:55:12.020Z,99332.20
2023-04-13T07:57:45.472Z,99338.39
2023-04-13T08:00:15.399Z,99341.20
2023-04-13T08:02:45.131Z,99341.41
2023-04-13T08:05:16.782Z,99340.08
2023-04-13T08:07:46.891Z,99335.73
2023-04-13T08:10:16.571Z,99335.29
2023-04-13T08:12:44.675Z,99337.42
2023-04-13T08:15:13.469Z,99335.79
2023-04-13T08:17:42.236Z,99335.20
2023-04-13T08:20:10.314Z,99332.95
2023-04-13T08:22:38.880Z,99331.58
2023-04-13T08:25:07.408Z,99333.34
2023-04-13T08:27:35.969Z,99330.20
2023-04-13T08:30:05.673Z,99331.05
2023-04-13T08:32:42.274Z,99329.84
2023-04-13T08:35:11.771Z,99328.81
2023-04-13T08:37:40.334Z,99331.42
2023-04-13T08:40:12.183Z,99327.92
2023-04-13T08:42:41.497Z,99328.19
2023-04-13T08:45:10.615Z,99325.44
2023-04-13T08:47:41.337Z,99320.38
2023-04-13T08:50:11.276Z,99319.27
2023-04-13T08:52:51.957Z,99315.73
2023-04-13T08:55:20.347Z,99315.00
2023-04-13T08:57:51.704Z,99312.83
2023-04-13T09:00:22.006Z,99311.55
2023-04-13T09:03:04.892Z,99310.66
2023-04-13T09:05:41.562Z,99313.44
2023-04-13T09:08:13.719Z,99312.81
2023-04-13T09:10:45.437Z,99313.73
2023-04-13T09:13:13.959Z,99315.50
2023-04-13T09:15:43.407Z,99314.28
2023-04-13T09:18:26.247Z,99310.14
2023-04-13T09:21:00.583Z,99304.38
2023-04-13T09:23:28.744Z,99302.69
2023-04-13T09:26:09.829Z,99305.65
2023-04-13T09:28:48.084Z,99307.02
2023-04-13T09:31:16.561Z,99304.30
2023-04-13T09:33:46.875Z,99300.28
2023-04-13T09:36:17.914Z,99298.34
2023-04-13T09:38:55.251Z,99295.89
2023-04-13T09:41:33.594Z,99290.07
2023-04-13T09:44:03.642Z,99293.75
2023-04-13T09:46:32.812Z,99287.80
2023-04-13T09:49:03.301Z,99286.55
2023-04-13T09:51:39.259Z,99278.84
2023-04-13T09:54:08.068Z,99278.30
2023-04-13T09:56:47.208Z,99278.10
2023-04-13T09:59:17.865Z,99276.89
2023-04-13T10:01:46.930Z,99276.33
2023-04-13T10:04:16.453Z,99269.52
2023-04-13T10:06:45.772Z,99267.63
2023-04-13T10:09:15.120Z,99267.64
2023-04-13T10:11:46.952Z,99272.75
2023-04-13T10:14:32.943Z,99266.60
2023-04-13T10:17:08.803Z,99266.45
2023-04-13T10:19:43.452Z,99266.65
2023-04-13T10:22:11.835Z,99262.95
2023-04-13T10:24:40.301Z,99262.08
2023-04-13T10:27:16.916Z,99259.29
2023-04-13T10:29:45.642Z,99262.34
2023-04-13T10:32:40.048Z,99257.48
2023-04-13T10:35:12.889Z,99257.65
2023-04-13T10:37:43.329Z,99259.20
2023-04-13T10:40:13.939Z,99257.89
2023-04-13T10:45:26.527Z,99252.85
2023-04-13T10:47:55.787Z,99253.39
2023-04-13T10:50:27.482Z,99252.06
2023-04-13T10:53:05.701Z,99241.91
2023-04-13T10:55:35.239Z,99237.57
2023-04-13T10:58:14.752Z,99236.55
2023-04-13T11:00:46.688Z,99235.84
2023-04-13T11:03:16.997Z,99235.77
2023-04-13T11:05:47.522Z,99236.64
2023-04-13T11:08:19.333Z,99231.27
2023-04-13T11:10:54.383Z,99224.11
2023-04-13T11:13:25.456Z,99220.84
2023-04-13T11:16:04.549Z,99218.20
2023-04-13T11:18:33.517Z,99214.13
2023-04-13T11:21:06.007Z,99210.58
2023-04-13T11:23:36.210Z,99209.33
2023-04-13T11:26:04.979Z,99210.13
2023-04-13T11:28:41.789Z,99212.52
2023-04-13T11:31:11.443Z,99211.92
2023-04-13T11:33:40.818Z,99210.21
2023-04-13T11:36:11.998Z,99212.55
2023-04-13T11:38:42.233Z,99210.55
2023-04-13T11:43:42.104Z,99204.21
2023-04-13T11:46:13.657Z,99204.87
2023-04-13T11:48:42.547Z,99203.46
2023-04-13T11:51:11.545Z,99198.95
2023-04-13T11:53:41.033Z,99191.62
2023-04-13T11:56:09.259Z,99187.14
2023-04-13T11:58:39.080Z,99177.71
2023-04-13T12:03:56.911Z,99175.65
2023-04-13T12:06:30.956Z,99170.70
2023-04-13T12:09:09.997Z,99169.27
2023-04-13T12:11:42.675Z,99166.80
2023-04-13T12:14:45.933Z,99169.27
2023-04-13T12:17:35.479Z,99168.34
2023-04-13T12:20:04.029Z,99163.70
2023-04-13T12:22:52.309Z,99160.48
2023-04-13T12:25:35.460Z,99158.16
2023-04-13T12:28:04.918Z,99154.48
2023-04-13T12:30:33.101Z,99144.09
2023-04-13T12:33:01.154Z,99143.31
2023-04-13T12:35:29.160Z,99140.83
2023-04-13T12:37:57.337Z,99134.72
2023-04-13T12:40:25.225Z,99134.57
2023-04-13T12:42:53.213Z,99134.38
2023-04-13T12:45:21.276Z,99138.85
2023-04-13T12:47:49.329Z,99144.08
2023-04-13T12:50:17.268Z,99145.83
2023-04-13T12:52:45.735Z,99136.96
2023-04-13T12:55:14.174Z,99128.47
2023-04-13T12:57:42.095Z,99119.17
2023-04-13T13:00:11.504Z,99112.84
2023-04-13T13:02:39.587Z,99112.73
2023-04-13T13:05:09.362Z,99114.60
2023-04-13T13:07:37.599Z,99119.48
2023-04-13T13:10:15.024Z,99119.69
2023-04-13T13:12:50.289Z,99124.27
2023-04-13T13:15:18.801Z,99124.95
2023-04-13T13:17:46.735Z,99121.52
2023-04-13T13:20:15.501Z,99114.34
2023-04-13T13:22:43.580Z,99111.47
2023-04-13T13:25:11.635Z,99108.81
2023-04-13T13:28:10.128Z,99104.20
2023-04-13T13:30:27.685Z,99105.66
2023-04-13T13:32:55.820Z,99107.31
2023-04-13T13:35:23.807Z,99103.46
2023-04-13T13:37:51.716Z,99098.87
2023-04-13T13:40:26.901Z,99091.20
2023-04-13T13:42:56.791Z,99087.27
2023-04-13T13:45:24.991Z,99082.30
2023-04-13T13:47:57.933Z,99080.77
2023-04-13T13:50:34.005Z,99084.47
2023-04-13T13:53:04.925Z,99079.24
2023-04-13T13:55:42.197Z,99079.00
2023-04-13T13:58:10.662Z,99078.34
2023-04-13T14:00:38.617Z,99078.33
2023-04-13T14:03:06.826Z,99073.88
2023-04-13T14:05:37.418Z,99071.40
2023-04-13T14:08:05.609Z,99065.45
2023-04-13T14:10:35.490Z,99060.98
2023-04-13T14:13:03.577Z,99064.39
2023-04-13T14:15:31.829Z,99072.10
2023-04-13T14:18:09.008Z,99076.61
2023-04-13T14:20:39.572Z,99075.27
2023-04-13T14:23:09.736Z,99070.70
2023-04-13T14:25:41.304Z,99065.98
2023-04-13T14:28:11.295Z,99062.44
2023-04-13T14:30:39.637Z,99065.21
2023-04-13T14:33:07.761Z,99060.29
2023-04-13T14:35:35.960Z,99054.60
2023-04-13T14:38:03.993Z,99052.45
2023-04-13T14:40:32.614Z,99046.29
2023-04-13T14:43:00.893Z,99043.99
2023-04-13T14:45:29.040Z,99046.34
2023-04-13T14:47:57.152Z,99046.55
2023-04-13T14:50:25.452Z,99049.20
2023-04-13T14:52:53.491Z,99049.00
2023-04-13T14:55:21.564Z,99050.05
2023-04-13T14:57:50.173Z,99050.52
2023-04-13T15:00:22.482Z,99046.54
2023-04-13T15:02:52.639Z,99050.01
2023-04-13T15:05:21.444Z,99053.52
2023-04-13T15:07:51.024Z,99053.69
2023-04-13T15:10:19.538Z,99057.29
2023-04-13T15:12:48.429Z,99059.45
2023-04-13T15:15:16.504Z,99058.60
2023-04-13T15:17:44.626Z,99061.02
2023-04-13T15:20:12.628Z,99063.63
2023-04-13T15:22:40.805Z,99062.93
2023-04-13T15:25:09.078Z,99058.87
2023-04-13T15:27:37.147Z,99057.39
2023-04-13T15:30:06.218Z,99059.13
2023-04-13T15:32:34.428Z,99063.39
2023-04-13T15:35:02.864Z,99066.20
2023-04-13T15:37:31.115Z,99068.31
2023-04-13T15:39:59.165Z,99065.14
2023-04-13T15:42:27.334Z,99061.50
2023-04-13T15:44:55.357Z,99057.58
2023-04-13T15:47:23.626Z,99053.58
2023-04-13T15:49:51.649Z,99050.51
2023-04-13T15:52:19.814Z,99047.47
2023-04-13T15:54:47.753Z,99047.27
2023-04-13T15:57:17.055Z,99040.30
2023-04-13T15:59:45.084Z,99042.59
2023-04-13T16:02:13.372Z,99039.66
2023-04-13T16:04:41.808Z,99038.36
2023-04-13T16:07:14.181Z,99038.73
2023-04-13T16:09:44.094Z,99045.36
2023-04-13T16:12:12.196Z,99048.35
2023-04-13T16:14:44.972Z,99047.13
2023-04-13T16:17:14.989Z,99047.79
2023-04-13T16:19:47.115Z,99043.02
2023-04-13T16:22:16.762Z,99040.71
2023-04-13T16:24:44.773Z,99041.44
2023-04-13T16:27:12.936Z,99039.97
2023-04-13T16:29:45.356Z,99046.13
2023-04-13T16:32:13.347Z,99046.65
2023-04-13T16:34:41.242Z,99047.52
2023-04-13T16:37:09.175Z,99048.73
2023-04-13T16:39:38.046Z,99050.55
2023-04-13T16:42:06.370Z,99052.00
2023-04-13T16:44:34.353Z,99059.95
2023-04-13T16:47:02.265Z,99065.20
2023-04-13T16:49:30.633Z,99064.36
2023-04-13T16:51:58.625Z,99063.67
2023-04-13T16:54:26.751Z,99067.54
2023-04-13T16:56:54.673Z,99065.69
2023-04-13T16:59:22.665Z,99065.92
2023-04-13T17:01:50.599Z,99070.75
2023-04-13T17:04:18.684Z,99071.62
2023-04-13T17:06:47.524Z,99075.79
2023-04-13T17:09:15.549Z,99076.55
2023-04-13T17:11:43.404Z,99074.20
2023-04-13T17:14:11.261Z,99070.35
2023-04-13T17:16:39.224Z,99068.78
2023-04-13T17:19:07.456Z,99068.31
2023-04-13T17:21:35.362Z,99064.48
2023-04-13T17:24:03.519Z,99065.77
2023-04-13T17:26:32.444Z,99066.65
2023-04-13T17:29:01.552Z,99072.08
2023-04-13T17:31:29.934Z,99077.81
2023-04-13T17:33:57.824Z,99088.00
2023-04-13T17:36:27.465Z,99095.52
2023-04-13T17:38:55.433Z,99097.58
2023-04-13T17:41:23.396Z,99099.38
2023-04-13T17:43:51.391Z,99104.66
2023-04-13T17:46:19.312Z,99105.95
2023-04-13T17:48:47.405Z,99102.55
2023-04-13T17:51:15.520Z,99103.25
2023-04-13T17:53:43.477Z,99099.78
2023-04-13T17:56:16.226Z,99099.43
2023-04-13T17:58:44.391Z,99100.77
2023-04-13T18:01:12.573Z,99102.61
2023-04-13T18:03:40.893Z,99102.67
2023-04-13T18:06:09.163Z,99101.36
2023-04-13T18:08:37.118Z,99106.53
2023-04-13T18:11:05.062Z,99106.59
2023-04-13T18:13:34.383Z,99108.66
2023-04-13T18:16:03.549Z,99102.20
2023-04-13T18:18:31.624Z,99097.56
2023-04-13T18:20:59.649Z,99102.62
2023-04-13T18:23:27.875Z,99103.30
2023-04-13T18:25:55.855Z,99104.31
2023-04-13T18:28:23.842Z,99107.69
2023-04-13T18:30:51.883Z,99109.11
2023-04-13T18:33:19.951Z,99114.40
2023-04-13T18:35:48.270Z,99115.12
2023-04-13T18:38:16.312Z,99112.75
2023-04-13T18:40:45.786Z,99111.76
2023-04-13T18:43:13.738Z,99110.36
2023-04-13T18:45:41.700Z,99113.95
2023-04-13T18:48:10.105Z,99118.04
2023-04-13T18:50:38.522Z,99116.38
2023-04-13T18:53:06.641Z,99115.89
2023-04-13T18:55:35.062Z,99116.89
2023-04-13T18:58:03.036Z,99112.04
2023-04-13T19:00:31.806Z,99108.02
2023-04-13T19:03:00.096Z,99103.81
2023-04-13T19:05:28.492Z,99097.89
2023-04-13T19:07:59.455Z,99088.10
2023-04-13T19:10:31.683Z,99083.14
2023-04-13T19:12:59.819Z,99078.48
2023-04-13T19:15:28.211Z,99072.15
2023-04-13T19:17:57.022Z,99070.35
2023-04-13T19:20:27.879Z,99066.02
2023-04-13T19:22:56.003Z,99056.72
2023-04-13T19:25:23.988Z,99051.79
2023-04-13T19:27:51.888Z,99050.02
2023-04-13T19:30:20.092Z,99047.61
2023-04-13T19:32:49.643Z,99042.98
2023-04-13T19:35:18.276Z,99039.19
2023-04-13T19:37:46.391Z,99040.77
2023-04-13T19:40:14.544Z,99035.77
2023-04-13T19:42:44.369Z,99034.91
2023-04-13T19:45:14.136Z,99028.27
2023-04-13T19:47:44.602Z,99022.80
2023-04-13T19:50:17.180Z,99017.79
2023-04-13T19:52:47.676Z,99010.14
2023-04-13T19:55:16.235Z,99011.60
2023-04-13T19:57:45.067Z,99008.90
2023-04-13T20:00:19.133Z,99012.47
2023-04-13T20:02:50.335Z,99020.15
2023-04-13T20:05:20.395Z,99023.84
2023-04-13T20:07:48.720Z,99020.95
2023-04-13T20:10:17.533Z,99021.11
2023-04-13T20:12:46.112Z,99023.17
2023-04-13T20:15:15.262Z,99020.35
2023-04-13T20:17:43.430Z,99023.29
2023-04-13T20:20:13.467Z,99023.04
2023-04-13T20:22:41.574Z,99018.05
2023-04-13T20:25:11.200Z,99016.68
2023-04-13T20:27:42.222Z,99016.55
2023-04-13T20:30:15.395Z,99014.14
2023-04-13T20:32:43.835Z,99008.41
2023-04-13T20:35:15.870Z,99001.96
2023-04-13T20:37:44.016Z,98996.57
2023-04-13T20:40:12.475Z,98994.80
2023-04-13T20:42:42.552Z,98987.69
2023-04-13T20:45:15.148Z,98985.34
2023-04-13T20:47:43.418Z,98985.70
2023-04-13T20:50:13.449Z,98981.55
2023-04-13T20:52:43.266Z,98979.64
2023-04-13T20:55:14.524Z,98976.17
2023-04-13T20:57:42.602Z,98973.53
2023-04-13T21:00:17.663Z,98972.02
2023-04-13T21:02:47.014Z,98966.20
2023-04-13T21:05:17.322Z,98965.88
2023-04-13T21:07:45.376Z,98968.40
2023-04-13T21:10:15.153Z,98970.67
2023-04-13T21:12:44.065Z,98967.86
2023-04-13T21:15:12.329Z,98968.63
2023-04-13T21:17:42.829Z,98967.08
2023-04-13T21:20:11.855Z,98962.63
2023-04-13T21:22:39.974Z,98962.07
2023-04-13T21:25:08.421Z,98961.23
2023-04-13T21:27:36.477Z,98957.16
2023-04-13T21:30:05.578Z,98954.02
2023-04-13T21:32:33.544Z,98953.91
2023-04-13T21:35:01.768Z,98952.02
2023-04-13T21:37:29.962Z,98950.83
2023-04-13T21:39:58.549Z,98947.67
2023-04-13T21:42:28.448Z,98941.20
2023-04-13T21:44:57.195Z,98938.88
2023-04-13T21:47:25.276Z,98937.63
2023-04-13T21:49:56.390Z,98939.91
2023-04-13T21:52:24.424Z,98936.59
2023-04-13T21:54:54.577Z,98931.98
2023-04-13T21:57:22.485Z,98934.23
2023-04-13T21:59:50.561Z,98937.39
2023-04-13T22:02:18.620Z,98937.64
2023-04-13T22:04:46.710Z,98942.98
2023-04-13T22:07:14.781Z,98944.45
2023-04-13T22:09:42.950Z,98945.96
2023-04-13T22:12:11.151Z,98946.27
2023-04-13T22:14:39.176Z,98943.45
2023-04-13T22:17:07.295Z,98936.38
2023-04-13T22:19:35.200Z,98930.88
2023-04-13T22:22:03.176Z,98921.52
2023-04-13T22:24:31.346Z,98916.98
2023-04-13T22:27:04.892Z,98911.48
2023-04-13T22:29:33.128Z,98912.36
2023-04-13T22:32:02.145Z,98910.56
2023-04-13T22:34:34.693Z,98907.27
2023-04-13T22:37:04.876Z,98901.32
2023-04-13T22:39:33.089Z,98896.47
2023-04-13T22:42:01.349Z,98894.74
2023-04-13T22:44:36.288Z,98891.34
2023-04-13T22:47:04.726Z,98889.20
2023-04-13T22:49:32.771Z,98887.33
2023-04-13T22:52:01.118Z,98888.98
2023-04-13T22:54:29.020Z,98885.09
2023-04-13T22:56:56.979Z,98886.80
2023-04-13T22:59:24.929Z,98885.29
2023-04-13T23:01:53.268Z,98889.13
2023-04-13T23:04:21.571Z,98890.52
2023-04-13T23:06:50.187Z,98891.32
2023-04-13T23:09:18.173Z,98887.59
2023-04-13T23:11:46.029Z,98886.67
2023-04-13T23:14:17.592Z,98883.73
2023-04-13T23:16:45.568Z,98881.06
2023-04-13T23:19:13.835Z,98879.46
2023-04-13T23:21:41.924Z,98880.98
2023-04-13T23:24:09.842Z,98879.66
2023-04-13T23:26:38.099Z,98876.45
2023-04-13T23:29:06.221Z,98878.50
2023-04-13T23:31:34.307Z,98876.65
2023-04-13T23:34:02.524Z,98875.13
2023-04-13T23:36:31.101Z,98874.77
2023-04-13T23:38:59.371Z,98867.80
2023-04-13T23:41:27.635Z,98862.15
2023-04-13T23:43:55.657Z,98855.86
2023-04-13T23:46:24.892Z,98856.64
2023-04-13T23:48:52.911Z,98858.20
2023-04-13T23:51:22.433Z,98856.04
2023-04-13T23:53:50.738Z,98854.19
2023-04-13T23:56:18.725Z,98852.11
2023-04-13T23:58:46.901Z,98849.67
